Date,TemperatureHighF,TemperatureAvgF,TemperatureLowF,DewpointHighF,DewpointAvgF,DewpointLowF,HumidityHigh,HumidityAvg,HumidityLow,PressureMaxIn,PressureMinIn,WindSpeedMaxMPH,WindSpeedAvgMPH,GustSpeedMaxMPH,PrecipitationSumIn
2013-10-1,93.7,83.1,76.1,74.2,70.6,68.5,82,67,45,29.84,29.75,0,-999,0,0.00
2013-10-2,92.7,82.7,75.7,73.5,70.3,68.2,81,67,50,29.85,29.78,0,-999,0,0.00
2013-10-3,94.3,83.0,76.3,72.0,69.2,65.2,79,65,44,29.87,29.77,0,-999,0,0.00
2013-10-4,94.3,83.2,77.2,73.3,70.5,66.2,80,67,45,29.89,29.80,0,-999,0,0.00
2013-10-5,92.5,83.1,77.0,72.9,69.6,65.8,77,65,45,29.86,29.74,0,-999,0,0.00
2013-10-6,93.6,82.7,76.1,75.2,70.6,66.2,84,68,44,29.78,29.68,0,-999,0,0.00
2013-10-7,86.5,80.4,76.1,74.7,72.6,71.3,87,78,63,29.68,29.57,0,-999,0,0.00
2013-10-8,86.7,81.7,76.6,73.4,71.1,67.4,79,71,57,29.78,29.61,0,-999,0,0.00
2013-10-9,81.7,75.9,71.6,69.3,66.6,63.8,80,73,56,29.86,29.75,0,-999,0,0.00
2013-10-10,88.9,77.2,68.9,67.5,65.0,63.2,86,68,46,29.88,29.79,0,-999,0,0.00
2013-10-11,88.5,79.1,72.9,67.7,64.3,59.4,77,62,45,29.87,29.77,0,-999,0,0.00
2013-10-12,87.4,77.6,73.8,64.3,62.8,60.8,72,61,41,29.88,29.77,0,-999,0,0.00
2013-10-13,88.2,82.2,75.4,68.5,66.5,61.5,76,60,41,29.91,29.86,0,-999,0,0.00
2013-10-17,88.2,76.3,76.3,68.5,56.8,-99.9,77,59,49,29.75,29.72,0,-999,0,0.00
2013-10-18,91.8,81.0,74.7,75.8,71.7,68.7,89,74,56,29.98,29.71,0,-999,0,0.00
2013-10-19,91.0,81.0,75.7,76.3,72.5,69.5,87,76,55,29.96,29.88,0,-999,0,0.00
2013-10-20,90.5,81.0,75.6,76.9,73.1,69.5,93,78,57,29.96,29.86,0,-999,0,0.00
2013-10-21,90.5,81.3,76.5,78.2,73.2,69.7,93,78,54,30.01,29.92,0,-999,0,0.00
2013-10-22,86.5,79.0,73.4,77.4,73.2,70.6,93,83,67,29.95,29.83,0,-999,0,0.00
2013-10-23,81.1,75.2,71.6,72.5,63.3,52.4,92,69,43,30.01,29.80,0,-999,0,0.00
2013-10-24,73.4,69.5,64.9,58.8,51.9,47.0,70,54,48,30.16,30.00,0,-999,0,0.00
2013-10-25,81.1,71.6,62.2,61.2,56.8,53.3,89,62,39,30.24,30.14,0,-999,0,0.00
2013-10-26,88.0,72.7,65.3,64.5,58.2,53.4,77,62,37,30.20,30.07,0,-999,0,0.00
2013-10-27,87.4,73.2,65.1,65.9,58.6,53.3,81,62,45,30.13,30.05,0,-999,0,0.00
2013-10-28,86.9,74.1,65.1,65.4,59.5,52.7,77,62,44,30.19,30.09,0,-999,0,0.00
2013-10-29,85.5,75.1,66.7,68.8,65.0,60.9,85,72,54,30.22,30.12,0,-999,0,0.00
2013-10-30,86.5,76.1,70.0,71.2,67.5,65.1,89,76,56,30.21,30.08,0,-999,0,0.00
2013-10-31,87.1,77.4,71.1,70.9,67.9,65.9,88,74,52,30.12,29.98,0,-999,0,0.00